EST,Max TemperatureF,Mean TemperatureF,Min TemperatureF,Max Dew PointF,MeanDew PointF,Min DewpointF,Max Humidity, Mean Humidity, Min Humidity, Max Sea Level PressureIn, Mean Sea Level PressureIn, Min Sea Level PressureIn, Max VisibilityMiles, Mean VisibilityMiles, Min VisibilityMiles, Max Wind SpeedMPH, Mean Wind SpeedMPH, Max Gust SpeedMPH,PrecipitationIn, CloudCover, Events, WindDirDegrees
2013-2-1,36,28,19,31,8,-1,80,42,23,30.32,30.14,29.82,10,10,7,17,6,31,0.00,2,Snow,307
2013-2-2,39,28,16,24,10,-1,64,46,29,30.32,30.17,29.99,10,10,10,9,2,,0.00,4,,219
2013-2-3,49,40,31,29,24,20,77,57,40,29.98,29.90,29.83,10,10,10,14,5,25,0.00,6,,285
2013-2-4,46,36,27,23,19,13,63,50,35,30.09,30.00,29.94,10,10,10,14,4,24,0.00,1,,244
2013-2-5,59,45,31,36,27,20,75,59,37,29.95,29.91,29.88,10,10,10,17,2,24,0.00,3,,288
2013-2-6,63,46,31,36,23,1,83,46,16,30.25,30.11,29.95,10,10,10,10,2,17,0.00,0,,312
2013-2-7,45,41,37,35,31,21,90,73,38,30.31,30.20,30.03,10,8,3,14,7,21,0.28,6,Rain,59
2013-2-8,59,47,36,50,35,25,91,72,34,30.06,29.93,29.83,10,10,4,16,5,28,0.10,6,Rain,310
2013-2-9,57,42,28,25,12,-12,60,35,12,30.32,30.21,30.05,10,10,10,13,4,29,0.00,0,,302
2013-2-10,55,40,25,37,18,10,86,46,21,30.43,30.31,30.17,10,10,2,9,2,16,0.11,2,Rain,137
2013-2-11,53,46,39,50,43,36,91,88,71,30.15,30.01,29.93,10,5,2,6,1,,0.08,5,,235
2013-2-12,61,52,44,35,22,14,67,34,17,30.08,30.00,29.92,10,10,10,15,7,28,0.01,1,Rain,292
2013-2-13,45,42,39,43,38,32,90,84,72,29.93,29.76,29.62,10,7,2,13,2,18,0.27,7,Rain,263
2013-2-14,55,42,28,32,26,18,79,55,32,30.03,29.96,29.84,10,10,10,12,5,18,0.00,1,,270
2013-2-15,62,44,26,44,29,20,83,60,26,30.06,29.99,29.90,10,10,5,12,3,18,0.04,3,Rain,267
2013-2-16,41,34,27,31,20,9,71,55,38,29.97,29.90,29.81,10,10,10,14,6,24,0.04,5,Snow,329
2013-2-17,38,30,22,16,3,-6,62,34,18,30.20,30.06,29.92,10,10,10,16,9,31,0.00,1,,294
2013-2-18,55,36,16,24,11,-7,62,40,19,30.33,30.25,30.15,10,10,10,12,2,18,0.00,0,,184
2013-2-19,54,43,34,45,26,6,87,59,22,30.15,29.97,29.82,10,9,2,18,3,29,0.04,4,Rain-Snow,240
2013-2-20,54,39,25,16,2,-14,48,25,6,30.12,30.03,29.97,10,10,10,14,6,20,0.00,0,,301
2013-2-21,62,42,24,19,6,-16,50,25,4,30.24,30.14,30.07,10,10,10,12,2,20,0.00,1,Rain,58
2013-2-22,43,38,33,33,31,16,91,84,34,30.29,30.21,30.10,10,6,2,13,4,17,0.16,8,Rain-Snow,86
2013-2-23,52,43,34,47,38,32,91,89,81,30.12,29.93,29.82,10,8,2,5,1,,0.16,7,Rain,70
2013-2-24,61,48,34,41,26,9,91,52,16,30.03,29.92,29.80,10,8,0,13,4,21,0.00,1,Fog,307
2013-2-25,45,38,32,25,22,13,68,55,40,30.19,30.10,30.03,10,10,10,10,4,16,0.00,1,,76
2013-2-26,41,37,33,39,33,22,91,83,56,30.11,29.77,29.56,10,5,0,24,8,36,0.73,8,Fog-Rain-Snow,75
2013-2-27,58,46,35,48,37,32,92,72,39,29.76,29.70,29.61,10,8,0,12,3,20,0.05,5,Fog-Rain,247
2013-2-28,48,42,38,32,27,22,69,58,38,29.84,29.75,29.69,10,10,10,15,7,23,0.00,7,,283